Balikesir, Turkey

5:07 PM EEST on August 28, 2016 (GMT +0300)
Balikesir Air Base | | Change Station

Elev 335 ft 39.62 °N, 27.93 °E | Updated 17 minutes ago

Partly Cloudy
Partly Cloudy
84 °F
Feels Like 84 °F
N
15
Wind Variable Wind from NNW

Today
High -- | Low -- °F
--% Chance of Precip.
Yesterday
High -- | Low -- °F
Precip. -- in
Pressure 29.95 in
Visibility 6.2 miles
Clouds Few 3500 ft
Heat Index 84 °F
Dew Point 61 °F
Humidity 45%
Rainfall 0.00 in
Snow Depth Not available.
6:32 AM 7:45 PM
Waning Crescent, 15% visible
METAR LTBF 281350Z 34013KT 300V010 9999 FEW035 29/16 Q1014 NOSIG
Pressure 29.95 in
Visibility 6.2 miles
Clouds Few 3500 ft
Heat Index 84 °F
Dew Point 61 °F
Humidity 45%
Rainfall 0.00 in
Snow Depth Not available.
6:32 AM 7:45 PM
Waning Crescent, 15% visible
METAR LTBF 281350Z 34013KT 300V010 9999 FEW035 29/16 Q1014 NOSIG

10-Day Weather Forecast

×

Almanac

Astronomy

Aug. 28, 2016 Rise Set
Actual Time
Civil Twilight
Nautical Twilight
Astronomical Twilight
Moon
Length of Visible Light
Length of Day
Tomorrow will be .
, % of the Moon is Illuminated

Today's Extremes

Country Highs Country Lows

Community

WunderPhotos

Upload Photos

1,935,569 photos uploaded!

WunderBlog® & News

Nearby

Air Quality

  Air Quality AQ Index Pollutant
Not available.

Snow Depth

Station Depth Elevation

Earthquake Activity

City Distance Mag. Time & Date
Minimum magnitude displayed is 2.5.

Coastal Water Temperatures

Place Temperature

Stations

Nearby Weather Stations

Station Location Temp. Windchill Dew Point Humidity Wind Precip. Elev Updated Type